Portada
METAR-TAF:

METAR-TAF

Aeroports :

Bou Saâda, Algèria

latitud: 35-20N, longitud: 004-12E, altitud: 461 m

Observació

L'informe es va fer fa 4 hores i 21 minuts, a les 18:00 UTC
Vent 10 kt del Nord-Est
Temperatura 38°C
Humitat 11%
Pressió 1015 hPa
Visibilitat 10 km o més
Escasses núvols a una alçada de 3000 ft

METAR: DAAD 081800Z 05010KT 9999 FEW030 38/02 Q1015

Hora: 23:21 (22:21 UTC)

Pronòstic

L'informe es va fer fa 5 hores i 21 minuts, a les 17:00 UTC
Pronòstic vàlid del 08 a les 18 UTC al 09 a les 03 UTC
Vent 12 kt del Est
Visibilitat 10 km o més
Escasses núvols a una alçada de 3000 ft

TAF: DAAD 081700Z 0818/0903 10012KT 9999 FEW030

Observacions i pronòstics meteorològics de més de 4000 aeroports (METAR i TAF).

Les estacions disponibles són els punts grocs i vermells al mapa.

Posi el ratolí al punt desitjat per veure el nom de l'estació.

Feu clic per veure les observacions i els pronòstics meteorològics.

Per canviar el mapa: feu clic els botons verds amb una creu de color negre per apropar; al botó verd amb un guió per allunyar la imatge; o en les fletxes verdes per a mapes adjacents.


METAR-TAF: